createdAt,value
2017-04-18T00:01:20.812Z,6.73
2017-04-18T00:02:11.549Z,6.81
2017-04-18T00:03:22.250Z,6.76
2017-04-18T00:04:22.352Z,6.80
2017-04-18T00:05:22.514Z,6.89
2017-04-18T00:06:23.663Z,6.92
2017-04-18T00:07:22.815Z,6.94
2017-04-18T00:08:21.997Z,6.96
2017-04-18T00:14:23.277Z,6.57
2017-04-18T00:15:13.656Z,6.69
2017-04-18T00:17:27.253Z,6.74
2017-04-18T00:18:22.385Z,6.77
2017-04-18T00:20:23.302Z,6.84
2017-04-18T00:21:31.581Z,6.71
2017-04-18T00:23:26.470Z,6.83
2017-04-18T00:24:23.421Z,6.75
2017-04-18T00:26:20.860Z,6.84
2017-04-18T00:27:22.999Z,6.87
2017-04-18T00:31:23.571Z,6.72
2017-04-18T00:32:13.629Z,6.65
2017-04-18T00:34:27.700Z,6.72
2017-04-18T00:35:16.622Z,6.81
2017-04-18T00:37:21.216Z,6.88
2017-04-18T00:38:22.507Z,6.94
2017-04-18T00:39:20.997Z,6.88
2017-04-18T00:41:23.248Z,6.83
2017-04-18T00:42:27.264Z,6.84
2017-04-18T00:44:21.269Z,6.81
2017-04-18T00:45:24.432Z,6.80
2017-04-18T00:46:21.554Z,6.71
2017-04-18T00:49:13.026Z,6.68
2017-04-18T00:51:13.725Z,6.78
2017-04-18T00:54:26.142Z,6.66
2017-04-18T00:55:26.349Z,6.72
2017-04-18T00:56:20.584Z,6.67
2017-04-18T00:57:20.656Z,6.76
2017-04-18T00:58:27.375Z,6.54
2017-04-18T00:59:21.037Z,6.61
2017-04-18T01:00:26.788Z,6.64
2017-04-18T01:01:26.012Z,6.79
2017-04-18T01:02:22.439Z,6.66
2017-04-18T01:03:26.518Z,6.72
2017-04-18T01:04:12.646Z,6.78
2017-04-18T01:05:26.593Z,6.84
2017-04-18T01:06:25.052Z,6.71
2017-04-18T01:07:20.619Z,6.62
2017-04-18T01:08:21.712Z,6.52
2017-04-18T01:09:20.824Z,6.47
2017-04-18T01:10:20.947Z,6.47
2017-04-18T01:11:22.062Z,6.41
2017-04-18T01:12:20.191Z,6.43
2017-04-18T01:13:14.653Z,6.50
2017-04-18T01:14:22.441Z,6.56
2017-04-18T01:16:22.438Z,6.48
2017-04-18T01:17:10.611Z,6.53
2017-04-18T01:18:22.450Z,6.50
2017-04-18T01:19:21.589Z,6.53
2017-04-18T01:20:26.893Z,6.50
2017-04-18T01:21:14.175Z,6.53
2017-04-18T01:22:20.836Z,6.56
2017-04-18T01:23:20.967Z,6.63
2017-04-18T01:25:21.153Z,6.66
2017-04-18T01:26:21.145Z,6.67
2017-04-18T01:27:20.989Z,6.67
2017-04-18T01:28:20.660Z,6.70
2017-04-18T01:29:21.771Z,6.42
2017-04-18T01:30:22.434Z,6.42
2017-04-18T01:31:12.437Z,6.17
2017-04-18T01:32:21.445Z,6.28
2017-04-18T01:33:23.623Z,6.33
2017-04-18T01:34:23.378Z,6.21
2017-04-18T01:35:12.450Z,6.32
2017-04-18T01:36:21.998Z,6.43
2017-04-18T01:37:17.094Z,6.45
2017-04-18T01:38:21.653Z,6.43
2017-04-18T01:39:22.479Z,6.33
2017-04-18T01:40:21.052Z,6.32
2017-04-18T01:41:21.004Z,6.26
2017-04-18T01:42:22.310Z,6.29
2017-04-18T01:43:24.712Z,6.28
2017-04-18T01:44:13.213Z,6.37
2017-04-18T01:45:26.146Z,6.33
2017-04-18T01:46:20.878Z,6.33
2017-04-18T01:47:21.022Z,6.31
2017-04-18T01:48:21.409Z,6.31
2017-04-18T01:49:21.440Z,6.39
2017-04-18T01:50:21.604Z,6.43
2017-04-18T01:51:21.719Z,6.39
2017-04-18T01:52:20.843Z,6.36
2017-04-18T01:53:21.029Z,6.38
2017-04-18T01:54:22.054Z,6.44
2017-04-18T01:55:22.146Z,6.36
2017-04-18T01:56:26.011Z,6.45
2017-04-18T01:57:21.010Z,6.42
2017-04-18T01:58:26.193Z,6.44
2017-04-18T01:59:20.849Z,6.05
2017-04-18T02:00:15.123Z,6.11
2017-04-18T02:02:21.134Z,6.18
2017-04-18T02:03:21.233Z,6.27
2017-04-18T02:04:26.538Z,6.34
2017-04-18T02:05:11.686Z,6.38
2017-04-18T02:06:19.539Z,6.38
2017-04-18T02:07:22.405Z,6.41
2017-04-18T02:08:22.429Z,6.37
2017-04-18T02:09:23.527Z,6.34
2017-04-18T02:10:26.237Z,6.29
2017-04-18T02:11:21.795Z,6.32
2017-04-18T02:12:21.921Z,6.34
2017-04-18T02:13:20.937Z,6.30
2017-04-18T02:14:13.774Z,6.33
2017-04-18T02:15:20.828Z,6.37
2017-04-18T02:16:21.032Z,6.35
2017-04-18T02:17:13.366Z,6.35
2017-04-18T02:18:21.164Z,6.24
2017-04-18T02:19:21.204Z,6.32
2017-04-18T02:20:26.487Z,6.34
2017-04-18T02:21:20.756Z,6.43
2017-04-18T02:22:20.937Z,6.38
2017-04-18T02:23:21.578Z,6.29
2017-04-18T02:24:13.577Z,6.30
2017-04-18T02:25:23.075Z,6.25
2017-04-18T02:26:21.134Z,6.30
2017-04-18T02:27:20.733Z,6.29
2017-04-18T02:29:21.757Z,6.35
2017-04-18T02:30:21.715Z,6.37
2017-04-18T02:31:21.132Z,6.40
2017-04-18T02:32:20.746Z,6.38
2017-04-18T02:33:14.179Z,6.24
2017-04-18T02:34:14.103Z,6.29
2017-04-18T02:35:21.983Z,6.35
2017-04-18T02:36:13.772Z,6.34
2017-04-18T02:37:22.455Z,6.28
2017-04-18T02:38:12.460Z,6.26
2017-04-18T02:39:22.587Z,6.10
2017-04-18T02:40:21.057Z,6.09
2017-04-18T02:41:21.756Z,6.04
2017-04-18T02:42:20.843Z,6.06
2017-04-18T02:43:20.810Z,6.05
2017-04-18T02:44:09.897Z,5.95
2017-04-18T02:45:12.823Z,5.99
2017-04-18T02:46:20.855Z,5.91
2017-04-18T02:47:13.492Z,6.06
2017-04-18T02:48:20.591Z,6.01
2017-04-18T02:49:21.656Z,6.01
2017-04-18T02:50:22.725Z,6.06
2017-04-18T02:51:21.669Z,5.98
2017-04-18T02:52:11.836Z,5.99
2017-04-18T02:53:21.062Z,5.95
2017-04-18T02:54:21.362Z,5.95
2017-04-18T02:55:26.892Z,6.02
2017-04-18T02:56:21.031Z,6.07
2017-04-18T02:57:20.783Z,6.10
2017-04-18T02:59:20.830Z,6.13
2017-04-18T03:00:12.010Z,6.12
2017-04-18T03:01:22.451Z,6.09
2017-04-18T03:02:22.522Z,6.04
2017-04-18T03:03:21.605Z,5.88
2017-04-18T03:04:21.176Z,5.46
2017-04-18T03:05:26.640Z,5.60
2017-04-18T03:06:25.796Z,5.23
2017-04-18T03:07:21.435Z,5.33
2017-04-18T03:08:21.463Z,5.35
2017-04-18T03:09:22.469Z,5.49
2017-04-18T03:10:21.527Z,5.21
2017-04-18T03:11:15.001Z,5.28
2017-04-18T03:12:22.139Z,5.29
2017-04-18T03:13:27.656Z,5.33
2017-04-18T03:14:20.901Z,5.52
2017-04-18T03:15:26.075Z,5.40
2017-04-18T03:16:26.460Z,5.38
2017-04-18T03:17:20.834Z,5.41
2017-04-18T03:18:25.927Z,5.41
2017-04-18T03:19:21.628Z,5.47
2017-04-18T03:20:21.274Z,5.51
2017-04-18T03:21:22.154Z,5.67
2017-04-18T03:23:20.787Z,5.44
2017-04-18T03:24:21.633Z,5.60
2017-04-18T03:25:12.720Z,5.56
2017-04-18T03:26:21.400Z,5.38
2017-04-18T03:27:14.866Z,5.27
2017-04-18T03:28:21.613Z,5.31
2017-04-18T03:29:26.573Z,5.44
2017-04-18T03:30:21.536Z,5.33
2017-04-18T03:31:21.165Z,5.44
2017-04-18T03:32:21.261Z,5.37
2017-04-18T03:33:22.867Z,5.44
2017-04-18T03:35:22.122Z,5.49
2017-04-18T03:36:21.184Z,5.51
2017-04-18T03:37:23.617Z,5.54
2017-04-18T03:38:09.740Z,5.50
2017-04-18T03:39:21.844Z,5.37
2017-04-18T03:40:20.763Z,5.13
2017-04-18T03:41:11.970Z,5.28
2017-04-18T03:42:20.944Z,5.34
2017-04-18T03:43:23.083Z,5.42
2017-04-18T03:45:21.295Z,5.52
2017-04-18T03:47:21.443Z,5.59
2017-04-18T03:48:23.547Z,5.51
2017-04-18T03:49:27.542Z,5.52
2017-04-18T03:50:21.126Z,5.42
2017-04-18T03:51:21.588Z,5.45
2017-04-18T03:52:11.933Z,5.31
2017-04-18T03:53:20.958Z,5.26
2017-04-18T03:54:13.213Z,5.36
2017-04-18T03:55:20.972Z,5.33
2017-04-18T03:56:10.828Z,5.26
2017-04-18T03:57:26.071Z,5.34
2017-04-18T03:58:12.462Z,5.16
2017-04-18T03:59:12.532Z,5.26
2017-04-18T04:00:27.181Z,5.41
2017-04-18T04:01:22.520Z,5.40
2017-04-18T04:02:21.419Z,5.52
2017-04-18T04:03:21.522Z,5.63
2017-04-18T04:04:21.853Z,5.29
2017-04-18T04:05:12.087Z,5.40
2017-04-18T04:06:21.798Z,5.40
2017-04-18T04:07:21.352Z,5.00
2017-04-18T04:08:21.803Z,5.12
2017-04-18T04:09:12.891Z,5.28
2017-04-18T04:10:11.942Z,5.31
2017-04-18T04:11:26.207Z,5.44
2017-04-18T04:12:12.368Z,5.51
2017-04-18T04:13:12.956Z,5.44
2017-04-18T04:14:12.521Z,5.47
2017-04-18T04:15:16.853Z,5.35
2017-04-18T04:16:21.555Z,5.16
2017-04-18T04:17:13.536Z,5.13
2017-04-18T04:18:21.761Z,5.24
2017-04-18T04:19:21.193Z,5.40
2017-04-18T04:20:22.218Z,5.47
2017-04-18T04:21:12.447Z,5.40
2017-04-18T04:22:25.703Z,5.13
2017-04-18T04:23:22.230Z,5.22
2017-04-18T04:24:24.935Z,5.42
2017-04-18T04:26:20.569Z,5.44
2017-04-18T04:27:20.686Z,5.45
2017-04-18T04:28:21.552Z,5.33
2017-04-18T04:29:12.576Z,5.35
2017-04-18T04:30:20.893Z,5.18
2017-04-18T04:31:20.915Z,5.30
2017-04-18T04:32:21.836Z,5.24
2017-04-18T04:33:13.917Z,5.31
2017-04-18T04:35:21.536Z,5.33
2017-04-18T04:36:26.174Z,5.44
2017-04-18T04:37:21.206Z,5.39
2017-04-18T04:38:21.950Z,5.16
2017-04-18T04:39:13.929Z,5.39
2017-04-18T04:40:22.067Z,5.33
2017-04-18T04:41:26.682Z,5.47
2017-04-18T04:42:22.200Z,5.38
2017-04-18T04:43:20.617Z,5.14
2017-04-18T04:44:21.272Z,5.25
2017-04-18T04:45:25.885Z,5.21
2017-04-18T04:46:27.025Z,5.28
2017-04-18T04:47:25.925Z,5.16
2017-04-18T04:48:21.448Z,5.11
2017-04-18T04:49:21.991Z,5.26
2017-04-18T04:50:21.813Z,5.13
2017-04-18T04:51:20.808Z,5.14
2017-04-18T04:53:21.306Z,5.13
2017-04-18T04:54:15.654Z,4.86
2017-04-18T04:55:21.834Z,5.06
2017-04-18T04:56:11.678Z,4.92
2017-04-18T04:57:27.488Z,4.95
2017-04-18T04:58:26.513Z,4.96
2017-04-18T04:59:21.891Z,5.23
2017-04-18T05:00:20.930Z,5.20
2017-04-18T05:01:20.945Z,5.13
2017-04-18T05:02:12.640Z,5.28
2017-04-18T05:03:13.490Z,5.30
2017-04-18T05:04:21.592Z,5.01
2017-04-18T05:06:12.247Z,5.27
2017-04-18T05:09:12.580Z,5.54
2017-04-18T05:10:21.076Z,5.61
2017-04-18T05:11:12.198Z,5.61
2017-04-18T05:13:20.809Z,5.52
2017-04-18T05:14:20.726Z,5.50
2017-04-18T05:15:20.751Z,5.21
2017-04-18T05:16:12.611Z,5.29
2017-04-18T05:17:22.244Z,5.34
2017-04-18T05:18:11.934Z,5.13
2017-04-18T05:19:14.621Z,5.26
2017-04-18T05:20:25.584Z,5.33
2017-04-18T05:21:20.549Z,5.35
2017-04-18T05:22:20.627Z,5.42
2017-04-18T05:23:21.585Z,5.46
2017-04-18T05:24:12.908Z,5.52
2017-04-18T05:25:18.046Z,5.55
2017-04-18T05:26:26.817Z,5.41
2017-04-18T05:27:11.109Z,5.22
2017-04-18T05:31:21.197Z,5.18
2017-04-18T05:32:16.881Z,5.02
2017-04-18T05:33:22.201Z,5.01
2017-04-18T05:34:27.364Z,5.10
2017-04-18T05:35:22.209Z,4.92
2017-04-18T05:36:20.868Z,4.71
2017-04-18T05:37:20.986Z,4.58
2017-04-18T05:38:12.625Z,4.77
2017-04-18T05:39:11.380Z,4.84
2017-04-18T05:40:21.870Z,4.69
2017-04-18T05:42:22.231Z,4.69
2017-04-18T05:43:27.391Z,4.67
2017-04-18T05:44:20.811Z,4.79
2017-04-18T05:45:21.897Z,4.64
2017-04-18T05:46:22.547Z,4.84
2017-04-18T05:47:21.865Z,4.92
2017-04-18T05:48:22.516Z,4.80
2017-04-18T05:49:21.868Z,4.88
2017-04-18T05:50:21.809Z,5.04
2017-04-18T05:52:20.996Z,5.13
2017-04-18T05:53:21.455Z,5.10
2017-04-18T05:54:11.786Z,5.11
2017-04-18T05:55:21.042Z,5.11
2017-04-18T05:56:22.583Z,5.17
2017-04-18T05:57:26.947Z,5.18
2017-04-18T05:58:21.126Z,5.26
2017-04-18T05:59:12.636Z,5.31
2017-04-18T06:00:22.506Z,5.27
2017-04-18T06:01:21.376Z,5.32
2017-04-18T06:02:26.945Z,5.15
2017-04-18T06:03:12.512Z,5.17
2017-04-18T06:04:19.862Z,5.10
2017-04-18T06:05:12.865Z,5.07
2017-04-18T06:06:12.457Z,5.18
2017-04-18T06:07:21.617Z,5.26
2017-04-18T06:08:21.720Z,5.28
2017-04-18T06:09:21.767Z,5.23
2017-04-18T06:11:21.049Z,5.23
2017-04-18T06:12:21.207Z,5.27
2017-04-18T06:13:13.304Z,5.24
2017-04-18T06:15:20.290Z,5.10
2017-04-18T06:16:12.291Z,5.15
2017-04-18T06:17:20.672Z,5.24
2017-04-18T06:18:22.872Z,5.30
2017-04-18T06:19:17.535Z,5.27
2017-04-18T06:21:21.068Z,5.26
2017-04-18T06:22:21.102Z,4.94
2017-04-18T06:23:21.510Z,5.02
2017-04-18T06:24:20.607Z,5.07
2017-04-18T06:25:21.191Z,5.20
2017-04-18T06:26:21.330Z,5.31
2017-04-18T06:27:20.354Z,5.24
2017-04-18T06:28:21.179Z,5.33
2017-04-18T06:29:19.979Z,5.30
2017-04-18T06:30:20.691Z,5.30
2017-04-18T06:31:11.602Z,5.32
2017-04-18T06:33:26.428Z,5.32
2017-04-18T06:34:21.484Z,5.36
2017-04-18T06:35:20.979Z,5.28
2017-04-18T06:36:21.039Z,5.13
2017-04-18T06:37:14.091Z,5.19
2017-04-18T06:39:21.792Z,5.19
2017-04-18T06:40:16.631Z,5.22
2017-04-18T06:41:20.976Z,5.21
2017-04-18T06:43:21.416Z,5.15
2017-04-18T06:45:20.672Z,5.23
2017-04-18T06:46:25.703Z,5.19
2017-04-18T06:47:21.702Z,5.26
2017-04-18T06:48:26.821Z,5.19
2017-04-18T06:49:17.628Z,5.23
2017-04-18T06:50:21.276Z,5.14
2017-04-18T06:51:21.788Z,5.18
2017-04-18T06:52:21.401Z,5.29
2017-04-18T06:53:11.707Z,5.20
2017-04-18T06:54:22.294Z,4.97
2017-04-18T06:56:22.369Z,5.13
2017-04-18T06:57:16.548Z,5.19
2017-04-18T07:01:14.724Z,5.16
2017-04-18T07:02:21.059Z,5.05
2017-04-18T07:03:32.369Z,5.16
2017-04-18T07:04:12.433Z,5.05
2017-04-18T07:05:14.505Z,5.16
2017-04-18T07:06:13.077Z,5.22
2017-04-18T07:07:21.811Z,5.26
2017-04-18T07:08:20.710Z,5.37
2017-04-18T07:09:21.819Z,5.03
2017-04-18T07:10:20.473Z,5.29
2017-04-18T07:11:15.222Z,5.20
2017-04-18T07:13:20.882Z,5.43
2017-04-18T07:15:21.194Z,5.44
2017-04-18T07:16:13.389Z,5.19
2017-04-18T07:17:22.041Z,5.19
2017-04-18T07:18:22.423Z,5.49
2017-04-18T07:19:18.155Z,5.61
2017-04-18T07:20:14.506Z,5.71
2017-04-18T07:21:18.368Z,5.76
2017-04-18T07:22:13.731Z,5.74
2017-04-18T07:25:16.950Z,5.53
2017-04-18T07:26:12.335Z,5.68
2017-04-18T07:27:21.241Z,5.70
2017-04-18T07:28:20.997Z,5.66
2017-04-18T07:29:20.472Z,5.73
2017-04-18T07:30:21.088Z,5.69
2017-04-18T07:31:14.560Z,5.54
2017-04-18T07:34:16.684Z,5.61
2017-04-18T07:35:20.644Z,5.35
2017-04-18T07:36:21.148Z,5.47
2017-04-18T07:37:21.219Z,5.31
2017-04-18T07:38:22.967Z,5.25
2017-04-18T07:39:19.424Z,5.07
2017-04-18T07:40:13.542Z,5.07
2017-04-18T07:42:21.725Z,5.56
2017-04-18T07:45:20.843Z,5.47
2017-04-18T07:46:25.882Z,5.40
2017-04-18T07:47:21.162Z,5.58
2017-04-18T07:48:17.150Z,5.65
2017-04-18T07:49:18.596Z,5.68
2017-04-18T07:50:21.495Z,5.81
2017-04-18T07:51:14.945Z,5.63
2017-04-18T07:52:16.503Z,5.53
2017-04-18T07:53:11.682Z,5.73
2017-04-18T07:54:12.416Z,5.71
2017-04-18T07:55:17.336Z,5.69
2017-04-18T07:56:21.440Z,5.79
2017-04-18T07:57:26.218Z,5.72
2017-04-18T07:58:21.445Z,5.55
2017-04-18T08:00:21.763Z,5.52
2017-04-18T08:01:20.835Z,5.50
2017-04-18T08:03:22.095Z,5.59
2017-04-18T08:04:12.149Z,5.48
2017-04-18T08:05:21.337Z,5.71
2017-04-18T08:06:17.537Z,5.93
2017-04-18T08:08:21.062Z,5.95
2017-04-18T08:09:21.362Z,5.95
2017-04-18T08:10:26.798Z,6.06
2017-04-18T08:11:16.853Z,6.14
2017-04-18T08:12:20.879Z,5.77
2017-04-18T08:13:25.894Z,5.76
2017-04-18T08:14:21.623Z,5.70
2017-04-18T08:15:13.925Z,5.69
2017-04-18T08:16:12.473Z,5.72
2017-04-18T08:17:21.753Z,5.66
2017-04-18T08:18:22.076Z,5.47
2017-04-18T08:19:18.931Z,5.55
2017-04-18T08:20:22.026Z,5.79
2017-04-18T08:21:22.391Z,5.84
2017-04-18T08:22:20.876Z,5.65
2017-04-18T08:23:23.098Z,5.85
2017-04-18T08:24:22.939Z,5.89
2017-04-18T08:25:12.647Z,5.99
2017-04-18T08:26:20.888Z,5.76
2017-04-18T08:27:12.462Z,5.97
2017-04-18T08:28:13.805Z,6.00
2017-04-18T08:29:16.657Z,5.70
2017-04-18T08:31:21.938Z,5.89
2017-04-18T08:32:13.203Z,6.01
2017-04-18T08:33:26.556Z,5.90
2017-04-18T08:34:21.521Z,5.90
2017-04-18T08:35:27.360Z,5.73
2017-04-18T08:36:22.364Z,5.60
2017-04-18T08:37:22.239Z,5.55
2017-04-18T08:38:21.354Z,5.77
2017-04-18T08:39:22.169Z,5.72
2017-04-18T08:40:20.761Z,5.60
2017-04-18T08:41:27.250Z,5.63
2017-04-18T08:42:21.518Z,5.78
2017-04-18T08:43:22.112Z,5.83
2017-04-18T08:44:21.610Z,5.72
2017-04-18T08:45:20.850Z,5.65
2017-04-18T08:47:21.636Z,5.69
2017-04-18T08:48:20.863Z,5.82
2017-04-18T08:49:19.075Z,5.91
2017-04-18T08:50:11.850Z,5.90
2017-04-18T08:51:21.174Z,5.53
2017-04-18T08:52:21.232Z,5.57
2017-04-18T08:53:17.418Z,5.58
2017-04-18T08:54:12.511Z,5.31
2017-04-18T08:55:21.532Z,5.29
2017-04-18T08:56:21.582Z,4.74
2017-04-18T08:57:13.689Z,4.80
2017-04-18T08:58:20.747Z,4.74
2017-04-18T08:59:21.192Z,4.78
2017-04-18T09:00:13.899Z,4.76
2017-04-18T09:01:21.054Z,4.69
2017-04-18T09:02:21.119Z,4.85
2017-04-18T09:04:21.198Z,4.46
2017-04-18T09:05:18.493Z,4.57
2017-04-18T09:06:12.534Z,4.46
2017-04-18T09:07:21.616Z,4.42
2017-04-18T09:08:21.663Z,4.36
2017-04-18T09:09:16.157Z,4.32
2017-04-18T09:10:22.575Z,4.51
2017-04-18T09:11:22.680Z,4.53
2017-04-18T09:12:17.770Z,4.70
2017-04-18T09:14:17.218Z,4.75
2017-04-18T09:15:16.797Z,4.77
2017-04-18T09:16:14.105Z,4.62
2017-04-18T09:17:21.419Z,4.66
2017-04-18T09:18:21.100Z,4.79
2017-04-18T09:19:18.322Z,4.44
2017-04-18T09:20:16.394Z,4.61
2017-04-18T09:21:16.818Z,4.79
2017-04-18T09:23:22.146Z,4.90
2017-04-18T09:24:26.158Z,5.10
2017-04-18T09:25:12.871Z,5.07
2017-04-18T09:26:16.819Z,4.89
2017-04-18T09:27:21.419Z,4.95
2017-04-18T09:28:21.070Z,4.76
2017-04-18T09:29:22.152Z,4.78
2017-04-18T09:30:21.021Z,4.97
2017-04-18T09:31:20.980Z,4.87
2017-04-18T09:32:26.033Z,4.98
2017-04-18T09:33:12.604Z,4.98
2017-04-18T09:34:16.840Z,5.07
2017-04-18T09:36:20.963Z,4.92
2017-04-18T09:37:21.024Z,4.81
2017-04-18T09:38:21.525Z,4.77
2017-04-18T09:39:20.946Z,4.77
2017-04-18T09:40:17.957Z,5.08
2017-04-18T09:41:21.278Z,5.05
2017-04-18T09:42:17.978Z,5.18
2017-04-18T09:43:18.330Z,5.36
2017-04-18T09:44:25.601Z,5.55
2017-04-18T09:45:16.681Z,5.65
2017-04-18T09:46:26.673Z,5.62
2017-04-18T09:47:22.583Z,5.64
2017-04-18T09:48:20.743Z,5.40
2017-04-18T09:50:17.503Z,5.13
2017-04-18T09:51:17.026Z,5.26
2017-04-18T09:52:21.326Z,5.38
2017-04-18T09:53:22.242Z,5.22
2017-04-18T09:54:27.317Z,5.23
2017-04-18T09:55:14.000Z,5.30
2017-04-18T09:56:23.046Z,5.16
2017-04-18T09:57:16.888Z,5.01
2017-04-18T09:58:17.545Z,5.17
2017-04-18T09:59:16.587Z,5.01
2017-04-18T10:00:22.499Z,5.21
2017-04-18T10:01:22.304Z,5.28
2017-04-18T10:05:26.935Z,5.52
2017-04-18T10:06:20.999Z,5.35
2017-04-18T10:07:21.568Z,5.33
2017-04-18T10:08:19.908Z,5.25
2017-04-18T10:09:16.955Z,5.47
2017-04-18T10:10:16.937Z,5.52
2017-04-18T10:11:17.024Z,5.62
2017-04-18T10:12:21.245Z,5.65
2017-04-18T10:13:21.937Z,5.62
2017-04-18T10:14:13.062Z,5.60
2017-04-18T10:15:16.614Z,5.67
2017-04-18T10:16:26.837Z,5.45
2017-04-18T10:17:16.219Z,5.48
2017-04-18T10:18:16.776Z,5.40
2017-04-18T10:19:18.835Z,5.35
2017-04-18T10:20:26.349Z,5.43
2017-04-18T10:21:21.378Z,5.41
2017-04-18T10:23:21.053Z,5.05
2017-04-18T10:24:18.208Z,5.10
2017-04-18T10:25:22.572Z,4.96
2017-04-18T10:26:12.627Z,5.15
2017-04-18T10:27:22.917Z,5.04
2017-04-18T10:28:22.068Z,5.20
2017-04-18T10:29:22.222Z,5.19
2017-04-18T10:30:22.343Z,4.85
2017-04-18T10:31:14.704Z,4.93
2017-04-18T10:32:17.711Z,4.93
2017-04-18T10:33:26.967Z,5.16
2017-04-18T10:34:15.740Z,4.97
2017-04-18T10:35:21.378Z,5.10
2017-04-18T10:36:16.914Z,4.95
2017-04-18T10:37:22.071Z,5.01
2017-04-18T10:38:17.137Z,5.11
2017-04-18T10:39:21.032Z,5.06
2017-04-18T10:40:17.720Z,5.28
2017-04-18T10:41:23.575Z,5.26
2017-04-18T10:42:15.295Z,5.42
2017-04-18T10:43:20.916Z,5.39
2017-04-18T10:44:21.422Z,5.49
2017-04-18T10:45:21.586Z,5.63
2017-04-18T10:46:20.575Z,5.66
2017-04-18T10:47:27.471Z,5.75
2017-04-18T10:48:17.316Z,5.85
2017-04-18T10:49:22.097Z,5.69
2017-04-18T10:50:16.176Z,5.50
2017-04-18T10:51:22.025Z,5.32
2017-04-18T10:52:13.812Z,5.65
2017-04-18T10:53:22.597Z,5.74
2017-04-18T10:54:11.879Z,5.71
2017-04-18T10:56:26.837Z,5.30
2017-04-18T10:57:20.163Z,5.34
2017-04-18T10:58:26.783Z,5.38
2017-04-18T10:59:17.338Z,5.47
2017-04-18T11:01:20.904Z,5.50
2017-04-18T11:02:16.164Z,5.38
2017-04-18T11:03:21.395Z,5.30
2017-04-18T11:04:20.853Z,5.42
2017-04-18T11:05:20.991Z,5.58
2017-04-18T11:07:17.570Z,5.69
2017-04-18T11:08:18.146Z,5.70
2017-04-18T11:09:21.290Z,5.77
2017-04-18T11:10:22.126Z,5.71
2017-04-18T11:11:22.228Z,5.79
2017-04-18T11:12:13.864Z,5.72
2017-04-18T11:13:18.336Z,5.30
2017-04-18T11:14:27.089Z,5.09
2017-04-18T11:15:16.629Z,5.28
2017-04-18T11:17:20.716Z,5.46
2017-04-18T11:19:22.094Z,5.33
2017-04-18T11:20:21.388Z,5.19
2017-04-18T11:21:16.923Z,5.12
2017-04-18T11:22:20.906Z,4.93
2017-04-18T11:23:21.097Z,4.99
2017-04-18T11:25:21.484Z,5.04
2017-04-18T11:26:16.648Z,5.29
2017-04-18T11:27:20.968Z,4.91
2017-04-18T11:28:13.484Z,4.99
2017-04-18T11:29:17.269Z,5.16
2017-04-18T11:30:17.397Z,5.24
2017-04-18T11:31:21.423Z,4.97
2017-04-18T11:32:21.981Z,4.81
2017-04-18T11:33:22.021Z,5.00
2017-04-18T11:34:22.108Z,5.04
2017-04-18T11:36:22.343Z,5.38
2017-04-18T11:37:17.082Z,5.56
2017-04-18T11:38:22.069Z,5.53
2017-04-18T11:39:13.692Z,5.52
2017-04-18T11:40:22.564Z,5.48
2017-04-18T11:42:26.749Z,5.08
2017-04-18T11:43:21.889Z,5.08
2017-04-18T11:44:21.157Z,5.10
2017-04-18T11:45:17.867Z,4.95
2017-04-18T11:47:22.591Z,5.06
2017-04-18T11:48:21.362Z,5.06
2017-04-18T11:49:13.415Z,5.11
2017-04-18T11:50:12.835Z,5.24
2017-04-18T11:51:20.916Z,5.25
2017-04-18T11:52:17.225Z,5.20
2017-04-18T11:53:21.274Z,5.26
2017-04-18T11:54:15.362Z,5.22
2017-04-18T11:55:14.895Z,5.36
2017-04-18T11:56:13.995Z,5.17
2017-04-18T11:57:22.488Z,5.45
2017-04-18T12:00:17.104Z,5.52
2017-04-18T12:01:17.261Z,5.65
2017-04-18T12:02:10.287Z,5.62
2017-04-18T12:03:12.304Z,5.51
2017-04-18T12:04:26.727Z,5.31
2017-04-18T12:06:12.143Z,5.29
2017-04-18T12:07:21.378Z,5.25
2017-04-18T12:08:20.723Z,5.31
2017-04-18T12:10:22.222Z,5.30
2017-04-18T12:12:11.770Z,5.11
2017-04-18T12:13:11.857Z,5.34
2017-04-18T12:15:27.014Z,5.51
2017-04-18T12:16:20.870Z,5.42
2017-04-18T12:18:25.943Z,5.40
2017-04-18T12:19:22.013Z,5.52
2017-04-18T12:23:21.071Z,5.47
2017-04-18T12:24:20.681Z,5.49
2017-04-18T12:27:27.542Z,5.80
2017-04-18T12:29:12.248Z,5.79
2017-04-18T12:30:21.970Z,5.94
2017-04-18T12:32:20.854Z,5.94
2017-04-18T12:34:22.173Z,5.82
2017-04-18T12:35:21.044Z,5.98
2017-04-18T12:36:17.102Z,5.65
2017-04-18T12:39:22.381Z,6.02
2017-04-18T12:40:14.516Z,6.18
2017-04-18T12:42:22.048Z,6.30
2017-04-18T12:45:17.049Z,6.36
2017-04-18T12:46:22.330Z,6.23
2017-04-18T12:48:16.853Z,5.99
2017-04-18T12:51:22.566Z,5.80
2017-04-18T12:52:11.883Z,5.73
2017-04-18T12:53:22.439Z,5.86
2017-04-18T12:54:22.417Z,5.83
2017-04-18T12:55:21.470Z,5.84
2017-04-18T12:57:19.442Z,5.93
2017-04-18T12:58:21.435Z,5.98
2017-04-18T12:59:21.975Z,5.82
2017-04-18T13:01:21.443Z,5.82
2017-04-18T13:02:12.547Z,5.77
2017-04-18T13:03:22.505Z,6.05
2017-04-18T13:05:11.767Z,6.28
2017-04-18T13:08:27.405Z,6.17
2017-04-18T13:09:21.355Z,6.22
2017-04-18T13:10:21.522Z,6.35
2017-04-18T13:11:20.697Z,6.31
2017-04-18T13:12:21.406Z,6.26
2017-04-18T13:13:12.489Z,6.25
2017-04-18T13:14:22.208Z,6.26
2017-04-18T13:16:11.908Z,6.49
2017-04-18T13:17:27.236Z,6.35
2017-04-18T13:18:22.612Z,6.46
2017-04-18T13:19:22.319Z,6.59
2017-04-18T13:20:10.543Z,6.67
2017-04-18T13:21:20.513Z,6.87
2017-04-18T13:23:22.013Z,7.05
2017-04-18T13:26:21.488Z,7.42
2017-04-18T13:29:17.972Z,7.01
2017-04-18T13:32:21.162Z,7.54
2017-04-18T13:33:21.579Z,7.71
2017-04-18T13:34:21.774Z,7.76
2017-04-18T13:37:21.243Z,7.73
2017-04-18T13:38:21.404Z,8.00
2017-04-18T13:39:21.826Z,7.80
2017-04-18T13:40:20.854Z,8.10
2017-04-18T13:41:28.167Z,8.35
2017-04-18T13:42:21.293Z,8.42
2017-04-18T13:46:20.955Z,9.07
2017-04-18T13:47:21.265Z,9.32
2017-04-18T13:48:21.280Z,9.04
2017-04-18T13:50:20.830Z,9.62
2017-04-18T13:51:13.712Z,9.47
2017-04-18T13:52:26.485Z,9.25
2017-04-18T13:53:21.303Z,8.74
2017-04-18T13:55:27.372Z,8.66
2017-04-18T13:58:22.413Z,8.14
2017-04-18T14:01:21.061Z,7.86
2017-04-18T14:05:17.506Z,8.00
2017-04-18T14:08:22.823Z,8.89
2017-04-18T14:10:12.271Z,8.64
2017-04-18T14:11:14.402Z,8.41
2017-04-18T14:13:22.278Z,7.93
2017-04-18T14:14:19.372Z,8.07
2017-04-18T14:15:26.374Z,8.06
2017-04-18T14:17:26.083Z,7.94
2017-04-18T14:18:16.820Z,8.08
2017-04-18T14:19:16.776Z,8.02
2017-04-18T14:21:20.637Z,8.09
2017-04-18T14:23:18.430Z,8.13
2017-04-18T14:24:22.576Z,8.32
2017-04-18T14:25:15.046Z,8.23
2017-04-18T14:28:21.034Z,8.22
2017-04-18T14:30:20.629Z,7.71
2017-04-18T14:35:17.080Z,7.50
2017-04-18T14:38:23.144Z,7.40
2017-04-18T14:39:26.398Z,7.48
2017-04-18T14:42:14.456Z,7.84
2017-04-18T14:43:13.639Z,8.02
2017-04-18T14:45:17.448Z,7.99
2017-04-18T14:47:14.018Z,7.82
2017-04-18T14:55:22.429Z,8.76
2017-04-18T14:58:23.082Z,9.02
2017-04-18T14:59:21.884Z,9.00
2017-04-18T15:00:16.792Z,9.07
2017-04-18T15:01:20.878Z,9.18
2017-04-18T15:02:20.256Z,9.05
2017-04-18T15:03:13.391Z,9.20
2017-04-18T15:04:21.256Z,9.31
2017-04-18T15:05:14.268Z,9.40
2017-04-18T15:10:16.745Z,9.39
2017-04-18T15:12:22.320Z,9.26
2017-04-18T15:14:21.556Z,8.09
2017-04-18T15:15:13.759Z,8.02
2017-04-18T15:17:20.784Z,8.20
2017-04-18T15:20:17.050Z,7.87
2017-04-18T15:21:27.561Z,7.96
2017-04-18T15:22:26.390Z,8.19
2017-04-18T15:23:25.954Z,7.96
2017-04-18T15:24:16.939Z,7.79
2017-04-18T15:25:20.638Z,7.95
2017-04-18T15:27:22.395Z,8.58
2017-04-18T15:28:13.423Z,9.02
2017-04-18T15:30:21.449Z,10.05
2017-04-18T15:32:12.463Z,11.01
2017-04-18T15:34:20.612Z,11.83
2017-04-18T15:35:16.901Z,11.80
2017-04-18T15:37:17.012Z,12.40
2017-04-18T15:40:20.579Z,11.87
2017-04-18T15:44:20.901Z,10.48
2017-04-18T15:45:14.069Z,10.37
2017-04-18T15:46:26.804Z,10.57
2017-04-18T15:48:22.651Z,10.42
2017-04-18T15:51:12.082Z,10.51
2017-04-18T15:54:21.651Z,10.68
2017-04-18T15:57:16.800Z,10.00
2017-04-18T15:58:17.093Z,10.34
2017-04-18T15:59:26.169Z,10.96
2017-04-18T16:01:12.501Z,11.44
2017-04-18T16:02:12.767Z,11.56
2017-04-18T16:03:17.884Z,11.79
2017-04-18T16:05:22.496Z,11.83
2017-04-18T16:06:11.972Z,11.55
2017-04-18T16:07:13.570Z,12.12
2017-04-18T16:09:11.878Z,12.70
2017-04-18T16:10:22.474Z,12.89
2017-04-18T16:11:21.486Z,13.16
2017-04-18T16:13:21.447Z,12.79
2017-04-18T16:14:21.046Z,11.37
2017-04-18T16:16:20.499Z,10.08
2017-04-18T16:17:13.425Z,10.15
2017-04-18T16:18:21.378Z,9.68
2017-04-18T16:19:20.975Z,9.46
2017-04-18T16:29:26.828Z,8.58
2017-04-18T16:30:18.949Z,8.51
2017-04-18T16:32:13.512Z,8.19
2017-04-18T16:33:22.141Z,7.76
2017-04-18T16:34:14.460Z,7.62
2017-04-18T16:37:11.722Z,7.75
2017-04-18T16:41:21.971Z,7.85
2017-04-18T16:42:11.817Z,7.60
2017-04-18T16:44:21.048Z,7.68
2017-04-18T16:48:22.093Z,7.99
2017-04-18T16:49:13.548Z,8.07
2017-04-18T16:52:11.815Z,8.09
2017-04-18T16:53:09.599Z,8.12
2017-04-18T16:54:09.058Z,8.16